createdAt,value
2019-05-30T00:01:07.442Z,11.60
2019-05-30T00:03:37.285Z,11.50
2019-05-30T00:06:07.023Z,11.50
2019-05-30T00:08:36.780Z,11.50
2019-05-30T00:11:06.496Z,11.50
2019-05-30T00:13:36.225Z,11.40
2019-05-30T00:16:05.994Z,11.30
2019-05-30T00:18:35.731Z,11.30
2019-05-30T00:21:05.538Z,11.30
2019-05-30T00:23:35.227Z,11.30
2019-05-30T00:26:04.961Z,11.30
2019-05-30T00:28:34.645Z,11.30
2019-05-30T00:31:04.727Z,11.20
2019-05-30T00:33:34.528Z,11.10
2019-05-30T00:36:04.344Z,11.10
2019-05-30T00:38:34.040Z,11.00
2019-05-30T00:41:04.208Z,11.00
2019-05-30T00:43:34.025Z,11.00
2019-05-30T00:46:04.189Z,11.10
2019-05-30T00:48:33.982Z,11.10
2019-05-30T00:51:04.631Z,11.20
2019-05-30T00:53:34.511Z,11.30
2019-05-30T00:56:04.759Z,11.30
2019-05-30T00:58:34.655Z,11.40
2019-05-30T01:01:05.131Z,11.40
2019-05-30T01:03:35.014Z,11.50
2019-05-30T01:06:05.115Z,11.50
2019-05-30T01:08:34.864Z,11.50
2019-05-30T01:11:05.313Z,11.50
2019-05-30T01:13:35.210Z,11.50
2019-05-30T01:16:05.527Z,11.50
2019-05-30T01:18:35.563Z,11.50
2019-05-30T01:21:05.432Z,11.60
2019-05-30T01:23:36.794Z,11.60
2019-05-30T01:26:07.531Z,11.60
2019-05-30T01:28:37.294Z,11.60
2019-05-30T01:31:25.963Z,11.60
2019-05-30T01:33:55.711Z,11.60
2019-05-30T01:36:25.407Z,11.60
2019-05-30T01:38:55.045Z,11.60
2019-05-30T01:41:24.747Z,11.60
2019-05-30T01:43:54.392Z,11.60
2019-05-30T01:46:43.070Z,11.60
2019-05-30T01:49:12.717Z,11.50
2019-05-30T01:51:42.379Z,11.50
2019-05-30T01:54:31.084Z,11.40
2019-05-30T01:57:00.707Z,11.40
2019-05-30T01:59:30.306Z,11.40
2019-05-30T02:02:00.891Z,11.40
2019-05-30T02:04:30.656Z,11.40
2019-05-30T02:07:01.016Z,11.40
2019-05-30T02:09:30.708Z,11.40
2019-05-30T02:12:01.224Z,11.30
2019-05-30T02:14:31.097Z,11.30
2019-05-30T02:17:01.577Z,11.20
2019-05-30T02:19:31.406Z,11.20
2019-05-30T02:22:01.688Z,11.20
2019-05-30T02:24:31.404Z,11.10
2019-05-30T02:27:02.212Z,11.00
2019-05-30T02:29:35.021Z,10.90
2019-05-30T02:32:05.063Z,10.90
2019-05-30T02:34:35.228Z,10.90
2019-05-30T02:37:06.055Z,10.90
2019-05-30T02:39:36.385Z,10.90
2019-05-30T02:42:07.426Z,10.80
2019-05-30T02:44:37.389Z,10.80
2019-05-30T02:47:09.592Z,10.70
2019-05-30T02:49:39.851Z,10.60
2019-05-30T02:52:10.838Z,10.60
2019-05-30T02:54:41.224Z,10.50
2019-05-30T02:57:12.576Z,10.40
2019-05-30T02:59:42.480Z,10.30
2019-05-30T03:02:17.085Z,10.20
2019-05-30T03:04:43.767Z,10.20
2019-05-30T03:07:15.718Z,10.20
2019-05-30T03:09:45.522Z,10.20
2019-05-30T03:12:15.214Z,10.30
2019-05-30T03:14:45.042Z,10.30
2019-05-30T03:17:14.886Z,10.40
2019-05-30T03:19:44.660Z,10.40
2019-05-30T03:22:14.439Z,10.50
2019-05-30T03:24:44.088Z,10.60
2019-05-30T03:27:32.878Z,10.70
2019-05-30T03:30:28.112Z,10.70
2019-05-30T03:33:16.852Z,10.80
2019-05-30T03:35:42.366Z,10.90
2019-05-30T03:38:08.714Z,10.90
2019-05-30T03:40:38.983Z,11.00
2019-05-30T03:43:09.316Z,11.00
2019-05-30T03:45:41.521Z,11.00
2019-05-30T03:48:14.334Z,11.00
2019-05-30T03:50:52.838Z,11.00
2019-05-30T03:53:22.981Z,11.00
2019-05-30T03:55:57.794Z,11.00
2019-05-30T03:58:38.996Z,11.00
2019-05-30T04:01:12.608Z,11.10
2019-05-30T04:04:16.428Z,11.00
2019-05-30T04:06:49.711Z,11.00
2019-05-30T04:09:24.949Z,11.00
2019-05-30T04:12:14.226Z,11.10
2019-05-30T04:14:47.003Z,11.10
2019-05-30T04:17:18.510Z,11.20
2019-05-30T04:19:48.167Z,11.30
2019-05-30T04:22:19.430Z,11.40
2019-05-30T04:24:49.614Z,11.40
2019-05-30T04:27:19.224Z,11.40
2019-05-30T04:29:48.990Z,11.50
2019-05-30T04:32:20.595Z,11.50
2019-05-30T04:34:50.385Z,11.60
2019-05-30T04:37:21.989Z,11.70
2019-05-30T04:39:58.679Z,11.70
2019-05-30T04:42:28.502Z,11.80
2019-05-30T04:44:58.155Z,11.80
2019-05-30T04:47:37.082Z,11.90
2019-05-30T04:50:07.547Z,11.90
2019-05-30T04:52:37.347Z,11.90
2019-05-30T04:55:17.750Z,12.00
2019-05-30T04:58:18.032Z,12.00
2019-05-30T05:00:52.443Z,12.10
2019-05-30T05:03:41.794Z,12.20
2019-05-30T05:05:58.523Z,12.30
2019-05-30T05:08:31.009Z,12.40
2019-05-30T05:11:00.905Z,12.60
2019-05-30T05:13:30.821Z,12.60
2019-05-30T05:16:00.677Z,12.60
2019-05-30T05:18:37.630Z,12.50
2019-05-30T05:24:37.871Z,12.50
2019-05-30T05:27:13.319Z,12.60
2019-05-30T05:29:44.987Z,12.70
2019-05-30T05:32:18.168Z,12.80
2019-05-30T05:34:59.485Z,12.80
2019-05-30T05:37:40.801Z,13.00
2019-05-30T05:40:13.208Z,13.00
2019-05-30T05:42:44.033Z,13.00
2019-05-30T05:45:14.169Z,13.10
2019-05-30T05:48:04.992Z,13.20
2019-05-30T05:50:35.020Z,13.30
2019-05-30T05:53:04.789Z,13.40
2019-05-30T05:55:34.846Z,13.50
2019-05-30T05:58:07.215Z,13.60
2019-05-30T06:00:38.759Z,13.70
2019-05-30T06:03:08.777Z,13.80
2019-05-30T06:05:52.234Z,13.90
2019-05-30T06:08:12.895Z,13.90
2019-05-30T06:10:43.399Z,14.00
2019-05-30T06:13:19.182Z,14.10
2019-05-30T06:15:49.451Z,14.20
2019-05-30T06:25:45.292Z,14.40
2019-05-30T06:32:06.318Z,14.40
2019-05-30T06:35:22.978Z,14.50
2019-05-30T06:37:49.554Z,14.50
2019-05-30T06:44:59.302Z,14.60
2019-05-30T06:48:12.135Z,14.60
2019-05-30T06:50:42.232Z,14.60
2019-05-30T06:53:14.925Z,14.60
2019-05-30T06:56:05.745Z,14.60
2019-05-30T06:58:48.044Z,14.60
2019-05-30T07:01:09.447Z,14.70
2019-05-30T07:03:48.603Z,14.80
2019-05-30T07:06:25.306Z,14.90
2019-05-30T07:09:00.842Z,14.90
2019-05-30T07:11:31.229Z,14.90
2019-05-30T07:14:01.020Z,14.90
2019-05-30T07:17:18.099Z,14.90
2019-05-30T07:20:01.241Z,14.90
2019-05-30T07:22:33.812Z,15.00
2019-05-30T07:25:10.532Z,15.10
2019-05-30T07:27:47.977Z,15.10
2019-05-30T07:31:06.232Z,15.10
2019-05-30T07:34:01.312Z,15.10
2019-05-30T07:36:32.266Z,15.10
2019-05-30T07:39:02.505Z,15.10
2019-05-30T07:41:34.782Z,15.20
2019-05-30T07:44:04.298Z,15.20
2019-05-30T07:46:44.525Z,15.20
2019-05-30T07:49:14.367Z,15.30
2019-05-30T07:51:44.805Z,15.40
2019-05-30T07:54:28.792Z,15.50
2019-05-30T07:57:01.189Z,15.50
2019-05-30T07:59:43.441Z,15.50
2019-05-30T08:02:16.328Z,15.60
2019-05-30T08:04:47.746Z,15.60
2019-05-30T08:07:17.878Z,15.50
2019-05-30T08:09:47.928Z,15.50
2019-05-30T08:13:01.877Z,15.50
2019-05-30T08:15:29.770Z,15.40
2019-05-30T08:17:59.585Z,15.40
2019-05-30T08:20:29.659Z,15.40
2019-05-30T08:22:59.445Z,15.50
2019-05-30T08:25:30.081Z,15.50
2019-05-30T08:27:59.794Z,15.60
2019-05-30T08:30:30.318Z,15.60
2019-05-30T08:33:00.184Z,15.70
2019-05-30T08:35:39.174Z,15.70
2019-05-30T08:38:01.531Z,15.70
2019-05-30T08:40:52.049Z,15.70
2019-05-30T08:43:21.832Z,15.70
2019-05-30T08:45:51.506Z,15.70
2019-05-30T08:48:21.715Z,15.70
2019-05-30T08:50:51.391Z,15.70
2019-05-30T08:53:20.976Z,15.80
2019-05-30T08:55:50.619Z,15.80
2019-05-30T08:58:20.241Z,15.90
2019-05-30T09:00:49.876Z,15.90
2019-05-30T09:03:19.493Z,16.00
2019-05-30T09:06:03.006Z,16.00
2019-05-30T09:08:20.391Z,16.00
2019-05-30T09:10:50.043Z,16.00
2019-05-30T09:13:19.688Z,16.00
2019-05-30T09:15:49.533Z,16.10
2019-05-30T09:18:39.840Z,16.10
2019-05-30T09:21:09.681Z,16.10
2019-05-30T09:24:01.250Z,16.10
2019-05-30T09:26:29.646Z,16.20
2019-05-30T09:28:59.360Z,16.20
2019-05-30T09:31:28.980Z,16.30
2019-05-30T09:33:58.621Z,16.30
2019-05-30T09:36:28.287Z,16.30
2019-05-30T09:38:57.934Z,16.30
2019-05-30T09:41:27.530Z,16.20
2019-05-30T09:43:57.179Z,16.20
2019-05-30T09:46:26.820Z,16.20
2019-05-30T09:48:56.442Z,16.20
2019-05-30T09:51:26.089Z,16.20
2019-05-30T09:53:55.808Z,16.20
2019-05-30T09:56:25.579Z,16.20
2019-05-30T09:58:55.301Z,16.20
2019-05-30T10:01:25.036Z,16.20
2019-05-30T10:03:54.854Z,16.20
2019-05-30T10:06:29.471Z,16.30
2019-05-30T10:09:15.062Z,16.40
2019-05-30T10:11:45.619Z,16.50
2019-05-30T10:14:15.407Z,16.60
2019-05-30T10:16:49.963Z,16.70
2019-05-30T10:19:16.431Z,16.70
2019-05-30T10:21:49.044Z,16.70
2019-05-30T10:24:18.806Z,16.80
2019-05-30T10:26:49.008Z,16.80
2019-05-30T10:29:18.748Z,16.80
2019-05-30T10:31:48.465Z,16.90
2019-05-30T10:34:18.232Z,17.00
2019-05-30T10:36:49.293Z,17.00
2019-05-30T10:39:19.931Z,17.10
2019-05-30T10:41:49.615Z,17.20
2019-05-30T10:44:22.764Z,17.20
2019-05-30T10:46:52.824Z,17.30
2019-05-30T10:49:34.240Z,17.30
2019-05-30T10:51:59.301Z,17.40
2019-05-30T10:54:31.742Z,17.40
2019-05-30T10:57:03.099Z,17.40
2019-05-30T10:59:32.856Z,17.40
2019-05-30T11:02:02.581Z,17.50
2019-05-30T11:04:32.299Z,17.50
2019-05-30T11:07:53.039Z,17.50
2019-05-30T11:10:15.710Z,17.50
2019-05-30T11:12:46.630Z,17.50
2019-05-30T11:15:17.075Z,17.60
2019-05-30T11:17:47.252Z,17.70
2019-05-30T11:20:22.614Z,17.90
2019-05-30T11:22:53.054Z,18.00
2019-05-30T11:25:23.667Z,18.00
2019-05-30T11:27:54.723Z,18.10
2019-05-30T11:30:24.870Z,18.00
2019-05-30T11:32:55.163Z,18.10
2019-05-30T11:35:26.639Z,18.10
2019-05-30T11:37:57.233Z,18.20
2019-05-30T11:40:27.115Z,18.30
2019-05-30T11:42:57.475Z,18.40
2019-05-30T11:45:27.191Z,18.50
2019-05-30T11:48:15.857Z,18.60
2019-05-30T11:50:45.582Z,18.70
2019-05-30T11:53:16.811Z,18.80
2019-05-30T11:55:46.575Z,18.90
2019-05-30T11:58:19.419Z,19.00
2019-05-30T12:00:47.791Z,19.20
2019-05-30T12:03:17.542Z,19.20
2019-05-30T12:05:47.362Z,19.20
2019-05-30T12:08:17.053Z,19.30
2019-05-30T12:10:46.754Z,19.40
2019-05-30T12:13:16.667Z,19.40
2019-05-30T12:15:46.590Z,19.30
2019-05-30T12:18:16.438Z,19.50
2019-05-30T12:20:46.194Z,19.60
2019-05-30T12:23:16.082Z,19.60
2019-05-30T12:25:45.950Z,19.70
2019-05-30T12:28:15.777Z,19.80
2019-05-30T12:30:55.819Z,20.00
2019-05-30T12:33:16.923Z,20.20
2019-05-30T12:35:46.631Z,20.30
2019-05-30T12:38:16.511Z,20.30
2019-05-30T12:40:46.242Z,20.40
2019-05-30T12:43:15.969Z,20.50
2019-05-30T12:45:45.760Z,20.50
2019-05-30T12:48:15.499Z,20.60
2019-05-30T12:50:45.221Z,20.70
2019-05-30T12:53:15.124Z,20.80
2019-05-30T12:55:45.170Z,20.90
2019-05-30T12:58:14.820Z,20.90
2019-05-30T13:00:44.877Z,20.90
2019-05-30T13:03:14.597Z,20.90
2019-05-30T13:05:44.282Z,21.00
2019-05-30T13:08:21.297Z,21.00
2019-05-30T13:10:45.576Z,21.20
2019-05-30T13:13:15.206Z,21.30
2019-05-30T13:15:44.987Z,21.40
2019-05-30T13:18:14.633Z,21.60
2019-05-30T13:20:44.319Z,21.80
2019-05-30T13:23:14.044Z,22.10
2019-05-30T13:25:46.939Z,22.40
2019-05-30T13:28:16.829Z,22.70
2019-05-30T13:30:46.770Z,23.10
2019-05-30T13:33:18.383Z,23.40
2019-05-30T13:35:48.226Z,23.80
2019-05-30T13:38:26.415Z,24.10
2019-05-30T13:40:50.401Z,24.50
2019-05-30T13:43:20.693Z,24.80
2019-05-30T13:45:51.515Z,25.10
2019-05-30T13:48:21.430Z,25.40
2019-05-30T13:50:51.190Z,25.70
2019-05-30T13:53:21.475Z,25.90
2019-05-30T13:55:53.235Z,26.20
2019-05-30T13:58:27.862Z,26.40
2019-05-30T14:00:57.633Z,26.60
2019-05-30T14:03:47.458Z,26.80
2019-05-30T14:06:18.346Z,27.10
2019-05-30T14:08:50.804Z,27.60
2019-05-30T14:11:20.572Z,28.00
2019-05-30T14:13:50.303Z,28.40
2019-05-30T14:16:20.028Z,28.70
2019-05-30T14:18:49.944Z,29.00
2019-05-30T14:21:19.628Z,29.20
2019-05-30T14:24:09.385Z,29.10
2019-05-30T14:26:39.384Z,29.20
2019-05-30T14:29:09.865Z,29.40
2019-05-30T14:31:39.968Z,29.60
2019-05-30T14:34:10.227Z,29.90
2019-05-30T14:36:40.062Z,30.20
2019-05-30T14:39:11.099Z,30.40
2019-05-30T14:41:41.057Z,30.70
2019-05-30T14:44:11.519Z,30.80
2019-05-30T14:46:42.389Z,30.80
2019-05-30T14:49:12.749Z,30.90
2019-05-30T14:51:42.581Z,31.00
2019-05-30T14:54:13.143Z,31.30
2019-05-30T14:56:43.790Z,31.60
2019-05-30T14:59:13.702Z,31.90
2019-05-30T15:01:43.504Z,32.20
2019-05-30T15:04:13.436Z,32.60
2019-05-30T15:06:43.375Z,33.00
2019-05-30T15:09:23.593Z,33.30
2019-05-30T15:11:44.886Z,33.60
2019-05-30T15:14:14.633Z,33.70
2019-05-30T15:16:44.391Z,33.90
2019-05-30T15:19:14.338Z,34.00
2019-05-30T15:21:44.064Z,34.40
2019-05-30T15:24:14.347Z,34.60
2019-05-30T15:26:44.200Z,35.00
2019-05-30T15:29:16.357Z,35.30
2019-05-30T15:31:46.082Z,35.70
2019-05-30T15:34:16.839Z,36.00
2019-05-30T15:36:47.974Z,36.40
2019-05-30T15:39:31.616Z,36.60
2019-05-30T15:41:51.109Z,36.50
2019-05-30T15:44:22.257Z,36.50
2019-05-30T15:46:52.060Z,36.40
2019-05-30T15:49:23.713Z,36.50
2019-05-30T15:51:56.059Z,36.80
2019-05-30T15:54:25.877Z,36.80
2019-05-30T15:56:56.641Z,36.80
2019-05-30T15:59:28.047Z,36.80
2019-05-30T16:01:57.931Z,36.80
2019-05-30T16:04:27.625Z,37.00
2019-05-30T16:06:57.520Z,37.00
2019-05-30T16:09:27.244Z,37.00
2019-05-30T16:11:58.667Z,36.70
2019-05-30T16:14:28.535Z,36.60
2019-05-30T16:17:04.130Z,36.60
2019-05-30T16:19:36.635Z,36.90
2019-05-30T16:22:06.451Z,37.20
2019-05-30T16:24:36.220Z,37.50
2019-05-30T16:27:06.256Z,37.40
2019-05-30T16:29:39.046Z,37.20
2019-05-30T16:32:08.900Z,37.20
2019-05-30T16:34:38.604Z,37.40
2019-05-30T16:37:08.590Z,37.60
2019-05-30T16:39:38.334Z,37.80
2019-05-30T16:42:08.208Z,37.90
2019-05-30T16:44:39.128Z,38.00
2019-05-30T16:47:08.854Z,37.90
2019-05-30T16:49:38.994Z,37.90
2019-05-30T16:52:08.794Z,38.00
2019-05-30T16:54:38.616Z,38.00
2019-05-30T16:57:08.519Z,37.70
2019-05-30T16:59:40.198Z,37.60
2019-05-30T17:02:09.835Z,37.20
2019-05-30T17:04:39.567Z,36.20
2019-05-30T17:07:09.568Z,35.20
2019-05-30T17:09:45.512Z,34.10
2019-05-30T17:12:11.158Z,33.00
2019-05-30T17:14:40.896Z,31.90
2019-05-30T17:17:10.797Z,30.90
2019-05-30T17:19:40.610Z,30.00
2019-05-30T17:22:10.555Z,29.10
2019-05-30T17:24:40.194Z,28.30
2019-05-30T17:27:09.949Z,27.50
2019-05-30T17:29:39.823Z,26.90
2019-05-30T17:32:09.595Z,26.30
2019-05-30T17:34:39.515Z,25.90
2019-05-30T17:37:09.197Z,25.40
2019-05-30T17:39:39.074Z,25.00
2019-05-30T17:42:08.846Z,24.60
2019-05-30T17:44:38.537Z,24.30
2019-05-30T17:47:08.324Z,24.10
2019-05-30T17:49:39.673Z,23.80
2019-05-30T17:52:09.420Z,23.50
2019-05-30T17:54:39.083Z,23.20
2019-05-30T17:57:09.478Z,22.90
2019-05-30T17:59:39.162Z,22.60
2019-05-30T18:02:08.790Z,22.40
2019-05-30T18:04:38.529Z,22.20
2019-05-30T18:07:08.199Z,22.10
2019-05-30T18:09:37.945Z,21.90
2019-05-30T18:12:07.690Z,21.70
2019-05-30T18:14:37.469Z,21.60
2019-05-30T18:17:09.363Z,21.40
2019-05-30T18:19:38.535Z,21.60
2019-05-30T18:22:08.289Z,21.90
2019-05-30T18:24:38.437Z,22.20
2019-05-30T18:27:08.496Z,22.50
2019-05-30T18:29:38.205Z,22.70
2019-05-30T18:32:08.610Z,22.70
2019-05-30T18:34:38.497Z,22.70
2019-05-30T18:37:08.464Z,22.60
2019-05-30T18:39:38.278Z,22.40
2019-05-30T18:42:08.006Z,22.30
2019-05-30T18:44:37.676Z,22.10
2019-05-30T18:47:08.965Z,21.90
2019-05-30T18:49:38.780Z,21.70
2019-05-30T18:52:08.586Z,21.40
2019-05-30T18:54:38.417Z,21.20
2019-05-30T18:57:08.089Z,20.90
2019-05-30T18:59:37.916Z,20.60
2019-05-30T19:02:07.661Z,20.40
2019-05-30T19:04:37.438Z,20.20
2019-05-30T19:07:07.180Z,20.00
2019-05-30T19:09:37.432Z,19.80
2019-05-30T19:12:07.602Z,19.70
2019-05-30T19:14:37.578Z,19.60
2019-05-30T19:17:07.404Z,19.50
2019-05-30T19:19:37.181Z,19.30
2019-05-30T19:22:06.904Z,19.30
2019-05-30T19:24:36.870Z,19.10
2019-05-30T19:27:06.791Z,19.00
2019-05-30T19:29:37.069Z,18.90
2019-05-30T19:32:07.189Z,18.80
2019-05-30T19:34:37.106Z,18.70
2019-05-30T19:37:06.738Z,18.60
2019-05-30T19:39:37.658Z,18.50
2019-05-30T19:42:07.855Z,18.50
2019-05-30T19:44:40.313Z,18.40
2019-05-30T19:47:09.068Z,18.40
2019-05-30T19:49:40.097Z,18.30
2019-05-30T19:52:09.920Z,18.20
2019-05-30T19:54:39.785Z,18.20
2019-05-30T19:57:09.635Z,18.10
2019-05-30T19:59:39.967Z,18.10
2019-05-30T20:02:09.914Z,18.00
2019-05-30T20:04:40.577Z,17.90
2019-05-30T20:07:10.608Z,17.80
2019-05-30T20:09:40.781Z,17.80
2019-05-30T20:12:10.864Z,17.70
2019-05-30T20:14:41.298Z,17.60
2019-05-30T20:17:11.571Z,17.60
2019-05-30T20:19:41.992Z,17.50
2019-05-30T20:22:11.993Z,17.40
2019-05-30T20:24:42.652Z,17.30
2019-05-30T20:27:12.554Z,17.30
2019-05-30T20:29:46.022Z,17.10
2019-05-30T20:32:13.947Z,17.10
2019-05-30T20:34:44.348Z,17.10
2019-05-30T20:37:15.351Z,17.00
2019-05-30T20:39:47.259Z,16.90
2019-05-30T20:42:19.571Z,16.90
2019-05-30T20:44:48.707Z,16.80
2019-05-30T20:47:18.524Z,16.80
2019-05-30T20:49:48.378Z,16.80
2019-05-30T20:52:18.396Z,16.70
2019-05-30T20:54:48.222Z,16.70
2019-05-30T20:57:18.022Z,16.70
2019-05-30T20:59:47.878Z,16.70
2019-05-30T21:02:17.909Z,16.60
2019-05-30T21:04:47.758Z,16.60
2019-05-30T21:07:18.146Z,16.60
2019-05-30T21:09:48.200Z,16.50
2019-05-30T21:12:36.344Z,16.50
2019-05-30T21:14:57.709Z,16.50
2019-05-30T21:17:29.682Z,16.50
2019-05-30T21:19:59.472Z,16.50
2019-05-30T21:22:30.915Z,16.50
2019-05-30T21:25:00.738Z,16.40
2019-05-30T21:27:30.502Z,16.40
2019-05-30T21:30:00.533Z,16.40
2019-05-30T21:32:30.308Z,16.30
2019-05-30T21:35:00.075Z,16.30
2019-05-30T21:37:29.745Z,16.30
2019-05-30T21:39:59.421Z,16.20
2019-05-30T21:42:29.114Z,16.20
2019-05-30T21:44:58.804Z,16.20
2019-05-30T21:47:28.467Z,16.20
2019-05-30T21:49:58.190Z,16.10
2019-05-30T21:52:27.886Z,16.10
2019-05-30T21:54:57.534Z,16.10
2019-05-30T21:57:27.195Z,16.10
2019-05-30T21:59:56.925Z,16.10
2019-05-30T22:02:26.760Z,16.00
2019-05-30T22:04:56.529Z,16.00
2019-05-30T22:07:26.252Z,16.00
2019-05-30T22:09:55.901Z,16.00
2019-05-30T22:12:25.602Z,16.00
2019-05-30T22:14:55.217Z,15.90
2019-05-30T22:17:24.974Z,15.90
2019-05-30T22:19:54.634Z,15.90
2019-05-30T22:22:43.891Z,15.90
2019-05-30T22:25:13.692Z,15.90
2019-05-30T22:27:44.453Z,15.80
2019-05-30T22:30:15.295Z,15.80
2019-05-30T22:32:45.100Z,15.70
2019-05-30T22:35:14.872Z,15.70
2019-05-30T22:37:44.822Z,15.70
2019-05-30T22:40:15.005Z,15.60
2019-05-30T22:42:44.613Z,15.60
2019-05-30T22:45:14.238Z,15.60
2019-05-30T22:47:44.185Z,15.60
2019-05-30T22:50:14.539Z,15.60
2019-05-30T22:52:44.822Z,15.60
2019-05-30T22:55:14.528Z,15.60
2019-05-30T22:57:44.398Z,15.60
2019-05-30T23:00:14.323Z,15.60
2019-05-30T23:02:43.930Z,15.50
2019-05-30T23:05:13.718Z,15.50
2019-05-30T23:07:43.329Z,15.50
2019-05-30T23:10:13.133Z,15.50
2019-05-30T23:12:44.050Z,15.50
2019-05-30T23:15:14.055Z,15.50
2019-05-30T23:17:43.744Z,15.50
2019-05-30T23:20:13.560Z,15.40
2019-05-30T23:22:43.213Z,15.40
2019-05-30T23:25:13.669Z,15.40
2019-05-30T23:27:43.316Z,15.40
2019-05-30T23:30:13.374Z,15.30
2019-05-30T23:32:42.999Z,15.30
2019-05-30T23:35:12.800Z,15.30
2019-05-30T23:37:42.531Z,15.20
2019-05-30T23:40:12.453Z,15.20
2019-05-30T23:42:42.094Z,15.20
2019-05-30T23:45:11.888Z,15.10
2019-05-30T23:47:41.520Z,15.10
2019-05-30T23:50:11.831Z,15.10
2019-05-30T23:52:41.558Z,15.10
2019-05-30T23:55:11.296Z,15.00
2019-05-30T23:57:40.975Z,15.00
